createdAt,value
2022-12-15T00:04:49.340Z,0
2022-12-15T00:09:49.571Z,0
2022-12-15T00:14:49.826Z,0
2022-12-15T00:19:49.324Z,0
2022-12-15T00:24:49.716Z,0
2022-12-15T00:29:49.340Z,0
2022-12-15T00:34:49.330Z,0
2022-12-15T00:39:49.338Z,0
2022-12-15T00:44:49.349Z,0
2022-12-15T00:49:49.299Z,0
2022-12-15T00:54:49.351Z,0
2022-12-15T00:59:49.342Z,0
2022-12-15T01:04:49.309Z,0
2022-12-15T01:09:49.320Z,0
2022-12-15T01:14:49.365Z,0
2022-12-15T01:19:49.863Z,0
2022-12-15T01:24:49.524Z,0
2022-12-15T01:29:49.397Z,0
2022-12-15T01:34:49.598Z,0
2022-12-15T01:39:49.311Z,0
2022-12-15T01:44:49.334Z,0
2022-12-15T01:49:49.348Z,0
2022-12-15T01:54:49.343Z,0
2022-12-15T01:59:49.342Z,0
2022-12-15T02:04:49.321Z,0
2022-12-15T02:09:50.331Z,0
2022-12-15T02:14:49.854Z,0
2022-12-15T02:19:49.342Z,0
2022-12-15T02:24:49.588Z,0
2022-12-15T02:29:49.369Z,0
2022-12-15T02:34:49.391Z,0
2022-12-15T02:39:49.438Z,0
2022-12-15T02:44:49.339Z,0
2022-12-15T02:49:49.704Z,0
2022-12-15T02:54:49.337Z,0
2022-12-15T02:59:49.407Z,0
2022-12-15T03:04:49.357Z,0
2022-12-15T03:09:49.348Z,0
2022-12-15T03:14:49.676Z,0
2022-12-15T03:19:49.883Z,0
2022-12-15T03:24:49.347Z,0
2022-12-15T03:29:49.405Z,0
2022-12-15T03:34:49.349Z,0
2022-12-15T03:39:49.360Z,0
2022-12-15T03:44:50.416Z,0
2022-12-15T03:49:49.344Z,0
2022-12-15T03:54:49.357Z,0
2022-12-15T03:59:49.354Z,0
2022-12-15T04:09:49.357Z,0
2022-12-15T04:14:49.735Z,0
2022-12-15T04:19:49.397Z,0
2022-12-15T04:24:49.492Z,0
2022-12-15T04:29:49.379Z,0
2022-12-15T04:34:49.726Z,0
2022-12-15T04:39:49.492Z,0
2022-12-15T04:44:50.009Z,0
2022-12-15T04:49:49.636Z,0
2022-12-15T04:54:49.406Z,0
2022-12-15T04:59:49.407Z,0
2022-12-15T05:04:49.562Z,0
2022-12-15T05:09:49.432Z,0
2022-12-15T05:14:49.644Z,0
2022-12-15T05:19:49.770Z,0
2022-12-15T05:24:49.415Z,0
2022-12-15T05:29:49.424Z,0
2022-12-15T05:34:49.632Z,0
2022-12-15T05:39:49.596Z,0
2022-12-15T05:44:49.780Z,0
2022-12-15T05:49:49.507Z,0
2022-12-15T05:54:49.469Z,0
2022-12-15T05:59:49.471Z,0
2022-12-15T06:04:49.615Z,0
2022-12-15T06:09:49.510Z,0
2022-12-15T06:14:49.783Z,0
2022-12-15T06:29:49.502Z,0
2022-12-15T06:34:49.421Z,0
2022-12-15T06:39:49.392Z,0
2022-12-15T06:44:49.960Z,0
2022-12-15T06:49:49.709Z,256
2022-12-15T06:54:49.514Z,258
2022-12-15T06:59:49.435Z,261
2022-12-15T07:04:49.442Z,262
2022-12-15T07:09:49.431Z,266
2022-12-15T07:14:53.498Z,273
2022-12-15T07:19:49.470Z,287
2022-12-15T07:24:49.736Z,292
2022-12-15T07:29:49.617Z,299
2022-12-15T07:34:49.480Z,317
2022-12-15T07:39:49.486Z,322
2022-12-15T07:44:49.926Z,339
2022-12-15T07:49:49.502Z,349
2022-12-15T07:54:49.624Z,368
2022-12-15T07:59:49.552Z,386
2022-12-15T08:04:49.666Z,445
2022-12-15T08:09:49.647Z,571
2022-12-15T08:14:50.123Z,449
2022-12-15T08:19:49.499Z,503
2022-12-15T08:24:49.684Z,496
2022-12-15T08:29:52.322Z,603
2022-12-15T08:34:49.563Z,586
2022-12-15T08:39:49.526Z,782
2022-12-15T08:44:49.515Z,954
2022-12-15T08:49:49.521Z,936
2022-12-15T08:54:49.510Z,1201
2022-12-15T08:59:49.537Z,1276
2022-12-15T09:04:50.071Z,1212
2022-12-15T09:09:49.622Z,1213
2022-12-15T09:14:49.518Z,1103
2022-12-15T09:19:49.490Z,1044
2022-12-15T09:24:49.482Z,973
2022-12-15T09:29:49.502Z,969
2022-12-15T09:34:49.544Z,934
2022-12-15T09:39:49.525Z,951
2022-12-15T09:44:49.545Z,1020
2022-12-15T09:49:49.448Z,958
2022-12-15T09:54:49.551Z,874
2022-12-15T09:59:49.917Z,805
2022-12-15T10:09:49.543Z,904
2022-12-15T10:14:49.797Z,855
2022-12-15T10:25:10.323Z,838
2022-12-15T10:29:49.536Z,872
2022-12-15T10:34:49.466Z,1014
2022-12-15T10:39:50.221Z,991
2022-12-15T10:44:50.258Z,1250
2022-12-15T10:49:49.498Z,1082
2022-12-15T10:54:49.450Z,1046
2022-12-15T10:59:50.299Z,1107
2022-12-15T11:04:49.474Z,865
2022-12-15T11:09:49.473Z,955
2022-12-15T11:14:49.437Z,801
2022-12-15T11:19:49.920Z,731
2022-12-15T11:24:49.716Z,715
2022-12-15T11:29:50.072Z,633
2022-12-15T11:34:49.464Z,618
2022-12-15T11:39:49.724Z,603
2022-12-15T11:44:49.642Z,624
2022-12-15T11:49:49.462Z,696
2022-12-15T11:54:49.971Z,746
2022-12-15T11:59:49.431Z,687
2022-12-15T12:04:50.826Z,635
2022-12-15T12:09:49.585Z,565
2022-12-15T12:14:50.532Z,591
2022-12-15T12:24:56.303Z,595
2022-12-15T12:39:52.359Z,513
2022-12-15T12:44:52.245Z,514
2022-12-15T12:49:52.104Z,541
2022-12-15T12:54:52.123Z,553
2022-12-15T12:59:52.439Z,570
2022-12-15T13:04:52.102Z,553
2022-12-15T13:09:52.162Z,570
2022-12-15T13:14:52.179Z,572
2022-12-15T13:19:53.828Z,547
2022-12-15T13:24:52.172Z,590
2022-12-15T13:29:52.125Z,589
2022-12-15T13:34:52.383Z,591
2022-12-15T13:39:52.120Z,627
2022-12-15T13:44:52.066Z,606
2022-12-15T13:49:59.218Z,540
2022-12-15T13:54:52.057Z,472
2022-12-15T13:59:52.585Z,459
2022-12-15T14:04:52.051Z,449
2022-12-15T14:09:52.062Z,437
2022-12-15T14:14:52.114Z,422
2022-12-15T14:19:52.026Z,407
2022-12-15T14:24:52.078Z,395
2022-12-15T14:29:56.304Z,377
2022-12-15T14:34:52.053Z,356
2022-12-15T14:39:52.074Z,338
2022-12-15T14:44:57.634Z,323
2022-12-15T14:49:52.034Z,302
2022-12-15T14:54:52.073Z,284
2022-12-15T14:59:52.045Z,277
2022-12-15T15:03:08.317Z,979
2022-12-15T15:04:52.064Z,273
2022-12-15T15:09:52.032Z,268
2022-12-15T15:14:52.064Z,262
2022-12-15T15:19:56.589Z,260
2022-12-15T15:29:56.072Z,0
2022-12-15T15:34:56.287Z,0
2022-12-15T15:39:56.072Z,0
2022-12-15T15:44:56.133Z,0
2022-12-15T15:49:56.061Z,0
2022-12-15T15:54:56.191Z,0
2022-12-15T15:59:56.110Z,0
2022-12-15T16:04:56.172Z,0
2022-12-15T16:09:56.125Z,0
2022-12-15T16:14:56.564Z,0
2022-12-15T16:19:56.105Z,0
2022-12-15T16:24:56.059Z,0
2022-12-15T16:29:56.079Z,0
2022-12-15T16:34:56.211Z,0
2022-12-15T16:39:56.234Z,0
2022-12-15T16:44:56.145Z,0
2022-12-15T16:49:56.082Z,0
2022-12-15T16:54:56.223Z,0
2022-12-15T16:59:56.126Z,0
2022-12-15T17:04:56.140Z,0
2022-12-15T17:09:56.207Z,0
2022-12-15T17:14:56.049Z,0
2022-12-15T17:20:28.358Z,0
2022-12-15T17:24:56.215Z,0
2022-12-15T17:29:56.168Z,0
2022-12-15T17:34:56.055Z,0
2022-12-15T17:39:56.122Z,0
2022-12-15T17:44:56.114Z,0
2022-12-15T17:49:56.310Z,0
2022-12-15T17:54:56.143Z,0
2022-12-15T17:59:56.101Z,0
2022-12-15T18:04:56.207Z,0
2022-12-15T18:09:56.575Z,0
2022-12-15T18:14:56.484Z,0
2022-12-15T18:19:56.103Z,0
2022-12-15T18:24:56.369Z,0
2022-12-15T18:29:56.100Z,0
2022-12-15T18:34:56.233Z,0
2022-12-15T18:40:02.491Z,0
2022-12-15T18:44:56.363Z,0
2022-12-15T18:49:56.153Z,0
2022-12-15T18:54:56.183Z,0
2022-12-15T18:59:56.119Z,0
2022-12-15T19:04:56.357Z,0
2022-12-15T19:09:56.437Z,0
2022-12-15T19:14:56.071Z,0
2022-12-15T19:19:56.154Z,0
2022-12-15T19:24:56.353Z,0
2022-12-15T19:29:56.131Z,0
2022-12-15T19:34:56.290Z,0
2022-12-15T19:39:56.154Z,0
2022-12-15T19:44:56.115Z,0
2022-12-15T19:49:56.088Z,0
2022-12-15T19:54:56.141Z,0
2022-12-15T19:59:56.118Z,0
2022-12-15T20:04:56.130Z,0
2022-12-15T20:09:56.673Z,0
2022-12-15T20:14:56.100Z,0
2022-12-15T20:19:56.086Z,0
2022-12-15T20:24:56.208Z,0
2022-12-15T20:29:56.189Z,0
2022-12-15T20:34:56.191Z,0
2022-12-15T20:39:57.565Z,0
2022-12-15T20:44:56.201Z,0
2022-12-15T20:49:56.161Z,0
2022-12-15T20:54:56.120Z,0
2022-12-15T20:59:56.181Z,0
2022-12-15T21:04:56.403Z,0
2022-12-15T21:09:56.235Z,0
2022-12-15T21:14:56.325Z,0
2022-12-15T21:19:56.212Z,0
2022-12-15T21:24:56.178Z,0
2022-12-15T21:29:56.095Z,0
2022-12-15T21:34:56.157Z,0
2022-12-15T21:39:56.209Z,0
2022-12-15T21:44:56.319Z,0
2022-12-15T21:49:56.212Z,0
2022-12-15T21:54:57.367Z,0
2022-12-15T21:59:56.257Z,0
2022-12-15T22:04:56.237Z,0
2022-12-15T22:09:56.156Z,0
2022-12-15T22:14:56.180Z,0
2022-12-15T22:19:57.232Z,0
2022-12-15T22:24:56.172Z,0
2022-12-15T22:29:56.132Z,0
2022-12-15T22:34:56.133Z,0
2022-12-15T22:39:56.249Z,0
2022-12-15T22:44:56.176Z,0
2022-12-15T22:49:56.143Z,0
2022-12-15T22:54:56.196Z,0
2022-12-15T22:59:56.533Z,0
2022-12-15T23:04:56.176Z,0
2022-12-15T23:09:56.201Z,0
2022-12-15T23:14:56.288Z,0
2022-12-15T23:19:56.151Z,0
2022-12-15T23:24:56.231Z,0
2022-12-15T23:29:56.297Z,0
2022-12-15T23:34:56.246Z,0
2022-12-15T23:39:56.195Z,0
2022-12-15T23:44:56.243Z,0
2022-12-15T23:49:56.254Z,0
2022-12-15T23:54:56.157Z,0
2022-12-15T23:59:56.124Z,0
